Christina O — C6FN7 — position and weather

sailwx.info

Track history (hours):
 
Tides and Currents Weather Stations Pressure Air Temp Water Temp Dewpoint Dewpoint Depression Visibility Wind Speed Wind Dir Waves Ship Positions

Christina O

Operator: V Ships Leisure SAM

Last reported at 2014-Sep-27 06:33 UTC. Time now 2014-Oct-01 18:29 UTC.
Position N 46°31' W 072°12'.

Length 186 m; draft 6.1 m.

Type: Ship. MMSI: 308322000.

Date/timePositionNaut miles runAvg speedWind from/ knotsBaromVisibWave heightAir tempDewpointWater temp
2014-Sep-27 06:33N 46°31' W 072°12'10 9.9
2014-Sep-27 05:33N 46°25' W 072°23'10 9.8
2014-Sep-27 04:33N 46°18' W 072°34'1010.1
2014-Sep-27 03:33N 46°14' W 072°47'2411.8
2014-Sep-27 01:33N 45°58' W 073°12'1212.4
2014-Sep-27 00:33N 45°47' W 073°21'1312.6
2014-Sep-26 23:33N 45°36' W 073°30'7 6.4
2014-Sep-26 22:32N 45°30' W 073°33'0 0.0
2014-Sep-26 21:23N 45°30' W 073°33'0 0.0
2014-Sep-26 20:26N 45°30' W 073°33'0 0.0
2014-Sep-26 19:29N 45°30' W 073°33'0 0.0
2014-Sep-26 18:32N 45°30' W 073°33'0 0.0
2014-Sep-26 17:32N 45°30' W 073°33'0 0.0
2014-Sep-26 16:29N 45°30' W 073°33'0 0.0
2014-Sep-26 15:32N 45°30' W 073°33'0 0.0
2014-Sep-26 14:31N 45°30' W 073°33'0 0.0
2014-Sep-26 13:31N 45°30' W 073°33'0 0.0
2014-Sep-26 12:31N 45°30' W 073°33'0 0.0
2014-Sep-26 11:31N 45°30' W 073°33'0 0.2
2014-Sep-26 10:34N 45°30' W 073°33'9 8.6
2014-Sep-26 09:34N 45°39' W 073°29'9 9.5
2014-Sep-26 08:34N 45°47' W 073°22'10 9.9
2014-Sep-26 07:34N 45°54' W 073°13'9 9.3
2014-Sep-26 06:33N 46°03' W 073°08'9 9.4
2014-Sep-26 05:33N 46°09' W 072°57'1111.4
2014-Sep-26 04:33N 46°15' W 072°43'10 9.8
2014-Sep-26 03:34N 46°20' W 072°31'1111.1
2014-Sep-26 02:34N 46°26' W 072°18'1511.2
2014-Sep-26 01:12N 46°36' W 072°00'  
Track history (hours):
 
Tides and Currents Weather Stations Pressure Air Temp Water Temp Dewpoint Dewpoint Depression Visibility Wind Speed Wind Dir Waves Ship Positions

Christina O

Operator: V Ships Leisure SAM

Last reported at 2014-Sep-27 06:33 UTC. Time now 2014-Oct-01 18:29 UTC.
Position N 46°31' W 072°12'.

Length 186 m; draft 6.1 m.

Type: Ship. MMSI: 308322000.

Date/timePositionNaut miles runAvg speedWind from/ knotsBaromVisibWave heightAir tempDewpointWater temp
2014-Sep-27 06:33N 46°31' W 072°12'10 9.9
2014-Sep-27 05:33N 46°25' W 072°23'10 9.8
2014-Sep-27 04:33N 46°18' W 072°34'1010.1
2014-Sep-27 03:33N 46°14' W 072°47'2411.8
2014-Sep-27 01:33N 45°58' W 073°12'1212.4
2014-Sep-27 00:33N 45°47' W 073°21'1312.6
2014-Sep-26 23:33N 45°36' W 073°30'7 6.4
2014-Sep-26 22:32N 45°30' W 073°33'0 0.0
2014-Sep-26 21:23N 45°30' W 073°33'0 0.0
2014-Sep-26 20:26N 45°30' W 073°33'0 0.0
2014-Sep-26 19:29N 45°30' W 073°33'0 0.0
2014-Sep-26 18:32N 45°30' W 073°33'0 0.0
2014-Sep-26 17:32N 45°30' W 073°33'0 0.0
2014-Sep-26 16:29N 45°30' W 073°33'0 0.0
2014-Sep-26 15:32N 45°30' W 073°33'0 0.0
2014-Sep-26 14:31N 45°30' W 073°33'0 0.0
2014-Sep-26 13:31N 45°30' W 073°33'0 0.0
2014-Sep-26 12:31N 45°30' W 073°33'0 0.0
2014-Sep-26 11:31N 45°30' W 073°33'0 0.2
2014-Sep-26 10:34N 45°30' W 073°33'9 8.6
2014-Sep-26 09:34N 45°39' W 073°29'9 9.5
2014-Sep-26 08:34N 45°47' W 073°22'10 9.9
2014-Sep-26 07:34N 45°54' W 073°13'9 9.3
2014-Sep-26 06:33N 46°03' W 073°08'9 9.4
2014-Sep-26 05:33N 46°09' W 072°57'1111.4
2014-Sep-26 04:33N 46°15' W 072°43'10 9.8
2014-Sep-26 03:34N 46°20' W 072°31'1111.1
2014-Sep-26 02:34N 46°26' W 072°18'1511.2
2014-Sep-26 01:12N 46°36' W 072°00'  

Dump ship's entire track history